Time;durP1;ratioP1;P1;durP2;ratioP2;P2;SDS_P1;SDS_P2;PMS_P1;PMS_P2;Temp;Humidity;BMP_temperature;BMP_pressure;BME280_temperature;BME280_humidity;BME280_pressure;Samples;Min_cycle;Max_cycle;Signal;HPM_P1;HPM_P2
2024/02/04 00:00:51;;;;;;;2.13;1.47;;;;;;;-145.69;58.88;52282.00;5132802;27;20200;-81
2024/02/04 00:03:19;;;;;;;2.43;1.70;;;;;;;-145.69;58.61;52285.97;5133126;28;20196;-82
2024/02/04 00:05:45;;;;;;;2.20;1.60;;;;;;;-145.69;58.36;52297.84;5133360;28;20196;-81
2024/02/04 00:08:16;;;;;;;3.23;2.10;;;;;;;-145.69;58.24;52270.13;5133281;28;20203;-80
2024/02/04 00:10:42;;;;;;;3.23;2.07;;;;;;;-145.69;58.66;52272.09;5133270;28;20708;-80
2024/02/04 00:13:09;;;;;;;3.43;2.00;;;;;;;-145.69;58.79;52289.91;5132809;27;20695;-80
2024/02/04 00:15:37;;;;;;;3.17;1.83;;;;;;;-145.69;58.97;52246.34;5132969;28;20201;-79
2024/02/04 00:18:04;;;;;;;3.33;2.20;;;;;;;-145.69;59.24;52274.06;5132844;27;20201;-80
2024/02/04 00:20:32;;;;;;;3.17;2.10;;;;;;;-145.69;59.37;52278.03;5133052;28;20228;-79
2024/02/04 00:22:59;;;;;;;2.77;1.93;;;;;;;-145.69;59.48;52270.13;5133003;28;20207;-80
2024/02/04 00:25:25;;;;;;;3.70;2.27;;;;;;;-145.69;59.86;52262.19;5133082;27;20197;-80
2024/02/04 00:27:55;;;;;;;2.20;1.80;;;;;;;-145.69;59.97;52289.91;5132950;27;20232;-80
2024/02/04 00:30:21;;;;;;;2.00;1.60;;;;;;;-145.69;60.08;52282.00;5133924;27;20204;-80
2024/02/04 00:32:49;;;;;;;2.80;1.80;;;;;;;-145.69;59.68;52260.22;5135112;27;20231;-80
2024/02/04 00:35:15;;;;;;;3.00;2.17;;;;;;;-145.69;59.79;52301.81;5135453;27;20280;-80
2024/02/04 00:37:42;;;;;;;2.57;1.60;;;;;;;-145.69;60.01;52244.38;5136606;27;20221;-80
2024/02/04 00:40:10;;;;;;;2.70;1.80;;;;;;;-145.69;59.61;52266.16;5136560;27;20200;-80
2024/02/04 00:42:36;;;;;;;2.20;1.80;;;;;;;-145.69;59.96;52303.78;5136540;27;20193;-80
2024/02/04 00:45:03;;;;;;;1.80;1.60;;;;;;;-145.69;59.29;52274.06;5136437;27;20258;-80
2024/02/04 00:47:30;;;;;;;4.47;2.17;;;;;;;-145.69;59.86;52291.91;5136575;27;20559;-80
2024/02/04 00:49:57;;;;;;;1.87;1.63;;;;;;;-145.69;59.83;52317.66;5136060;27;20683;-80
2024/02/04 00:52:24;;;;;;;2.50;1.80;;;;;;;-145.69;59.85;52280.00;5136443;27;20224;-80
2024/02/04 00:54:50;;;;;;;2.40;2.07;;;;;;;-145.69;59.80;52270.13;5136125;27;20257;-80
2024/02/04 00:57:17;;;;;;;2.43;1.63;;;;;;;-145.69;59.61;52297.84;5136186;27;20655;-80
2024/02/04 00:59:43;;;;;;;5.27;2.40;;;;;;;-145.69;59.49;52305.75;5135730;27;20204;-80
2024/02/04 01:02:10;;;;;;;2.77;1.73;;;;;;;-145.69;59.53;52270.13;5135761;27;20201;-80
2024/02/04 01:04:36;;;;;;;2.53;1.63;;;;;;;-145.69;59.24;52283.97;5135976;27;20207;-80
2024/02/04 01:07:04;;;;;;;2.60;1.80;;;;;;;-145.69;59.06;52270.13;5136023;27;20201;-80
2024/02/04 01:09:30;;;;;;;2.10;1.70;;;;;;;-145.69;59.50;52278.03;5136527;27;20203;-80
2024/02/04 01:11:57;;;;;;;3.37;1.70;;;;;;;-145.69;58.94;52228.53;5136037;27;20568;-80
2024/02/04 01:14:23;;;;;;;2.43;1.80;;;;;;;-145.69;58.32;52283.97;5135759;27;20700;-80
2024/02/04 01:16:50;;;;;;;2.17;1.83;;;;;;;-145.69;58.74;52256.25;5136005;27;20193;-80
2024/02/04 01:19:16;;;;;;;2.90;2.10;;;;;;;-145.69;58.90;52301.81;5135820;27;20223;-80
2024/02/04 01:21:44;;;;;;;1.90;1.50;;;;;;;-145.69;58.86;52274.06;5135712;27;20201;-80
2024/02/04 01:24:12;;;;;;;2.50;1.60;;;;;;;-145.69;59.56;52274.06;5136260;27;20200;-81
2024/02/04 01:26:38;;;;;;;2.57;1.43;;;;;;;-145.69;59.06;52268.13;5134309;27;20219;-80
2024/02/04 01:29:05;;;;;;;2.47;1.70;;;;;;;-145.69;59.33;52297.84;5135914;27;20559;-81
2024/02/04 01:31:31;;;;;;;1.93;1.60;;;;;;;-145.69;59.18;52278.03;5135003;27;20200;-81
2024/02/04 01:33:58;;;;;;;1.67;1.57;;;;;;;-145.69;59.54;52274.06;5135596;27;20228;-81
2024/02/04 01:36:24;;;;;;;2.23;1.50;;;;;;;-145.69;59.48;52287.94;5134916;27;20199;-81
2024/02/04 01:38:51;;;;;;;2.60;1.83;;;;;;;-145.69;58.94;52270.13;5135524;27;20196;-81
2024/02/04 01:41:18;;;;;;;2.43;1.70;;;;;;;-145.69;58.98;52264.16;5134348;27;20246;-80
2024/02/04 01:43:45;;;;;;;1.70;1.50;;;;;;;-145.69;58.68;52274.06;5135191;27;20205;-81
2024/02/04 01:46:13;;;;;;;2.03;1.40;;;;;;;-145.69;58.96;52252.28;5134712;27;20189;-81
2024/02/04 01:48:39;;;;;;;2.30;1.83;;;;;;;-145.69;58.47;52283.97;5134953;27;20204;-81
2024/02/04 01:51:06;;;;;;;1.63;1.43;;;;;;;-145.69;58.81;52252.28;5135087;27;20239;-82
2024/02/04 01:53:35;;;;;;;2.57;1.50;;;;;;;-145.69;58.85;52282.00;5134768;27;20227;-81
2024/02/04 01:56:01;;;;;;;2.53;1.47;;;;;;;-145.69;58.43;52250.31;5134955;27;20274;-80
2024/02/04 01:58:29;;;;;;;2.37;1.60;;;;;;;-145.69;58.68;52246.34;5134858;27;20257;-81
2024/02/04 02:00:56;;;;;;;2.13;1.67;;;;;;;-145.69;58.36;52274.06;5134957;27;20185;-80
2024/02/04 02:03:23;;;;;;;2.27;1.70;;;;;;;-145.69;58.77;52278.03;5134783;27;20207;-81
2024/02/04 02:05:49;;;;;;;2.53;1.50;;;;;;;-145.69;58.68;52254.28;5134872;27;20201;-81
2024/02/04 02:08:16;;;;;;;1.40;1.30;;;;;;;-145.69;58.74;52278.03;5134457;27;20200;-81
2024/02/04 02:10:46;;;;;;;1.90;1.50;;;;;;;-145.69;58.79;52293.88;5134845;27;20287;-81
2024/02/04 02:13:19;;;;;;;2.13;1.73;;;;;;;-145.69;58.66;52321.59;5134413;27;20228;-81
2024/02/04 02:15:50;;;;;;;1.77;1.50;;;;;;;-145.69;58.87;52282.00;5134751;27;20551;-80
2024/02/04 02:18:22;;;;;;;1.40;1.30;;;;;;;-145.69;58.46;52282.00;5134799;27;20200;-81
2024/02/04 02:21:13;;;;;;;1.70;1.40;;;;;;;-145.69;58.45;52278.03;5134495;27;20200;-81
2024/02/04 02:23:52;;;;;;;2.23;1.30;;;;;;;-145.69;58.30;52246.34;5117276;27;20212;-81
2024/02/04 02:26:21;;;;;;;5.23;1.70;;;;;;;-145.69;58.76;52285.97;5113572;28;20197;-80
2024/02/04 02:28:47;;;;;;;1.60;1.50;;;;;;;-145.69;58.38;52297.84;5114010;28;20354;-82
2024/02/04 02:31:14;;;;;;;3.10;1.87;;;;;;;-145.69;58.64;52258.22;5125147;27;20547;-80
2024/02/04 02:33:40;;;;;;;1.40;1.30;;;;;;;-145.69;58.84;52266.16;5134076;27;20224;-81
2024/02/04 02:36:17;;;;;;;2.27;1.63;;;;;;;-145.69;58.16;52297.84;5134301;27;20199;-81
2024/02/04 02:38:48;;;;;;;1.33;1.20;;;;;;;-145.69;58.81;52256.25;5134435;27;20207;-80
2024/02/04 02:41:17;;;;;;;2.43;1.80;;;;;;;-145.69;58.46;52264.16;5134148;27;20205;-80
2024/02/04 02:43:46;;;;;;;2.10;1.50;;;;;;;-145.69;58.58;52254.28;5133906;27;20200;-81
2024/02/04 02:46:13;;;;;;;3.43;1.20;;;;;;;-145.69;58.98;52297.84;5134159;27;20205;-81
2024/02/04 02:48:40;;;;;;;2.27;1.60;;;;;;;-145.69;58.70;52278.03;5133740;27;20197;-81
2024/02/04 02:51:06;;;;;;;2.37;1.40;;;;;;;-145.69;58.89;52254.28;5133694;27;20233;-80
2024/02/04 02:53:33;;;;;;;1.47;1.30;;;;;;;-145.69;58.37;52293.88;5133768;27;20687;-81
2024/02/04 02:55:59;;;;;;;1.73;1.63;;;;;;;-145.69;58.43;52297.84;5133798;27;20204;-81
2024/02/04 02:58:26;;;;;;;2.60;1.70;;;;;;;-145.69;58.95;52278.03;5133915;27;20208;-81
2024/02/04 03:00:54;;;;;;;1.93;1.67;;;;;;;-145.69;58.83;52282.00;5133675;27;20189;-81
2024/02/04 03:03:20;;;;;;;1.63;1.33;;;;;;;-145.69;58.91;52285.97;5133895;27;20197;-82
2024/02/04 03:05:47;;;;;;;1.30;1.20;;;;;;;-145.69;58.73;52272.09;5133850;27;20204;-81
2024/02/04 03:08:13;;;;;;;2.23;1.60;;;;;;;-145.69;58.98;52268.13;5134059;27;20196;-81
2024/02/04 03:10:40;;;;;;;1.87;1.37;;;;;;;-145.69;59.10;52282.00;5133614;27;20651;-80
2024/02/04 03:13:06;;;;;;;1.93;1.60;;;;;;;-145.69;59.36;52283.97;5133648;27;20248;-80
2024/02/04 03:15:33;;;;;;;2.17;1.43;;;;;;;-145.69;59.37;52270.13;5133508;27;20632;-80
2024/02/04 03:18:00;;;;;;;2.33;1.53;;;;;;;-145.69;59.26;52303.78;5133576;27;20197;-80
2024/02/04 03:20:27;;;;;;;2.10;1.50;;;;;;;-145.69;59.57;52278.03;5133655;27;20201;-80
2024/02/04 03:22:53;;;;;;;1.77;1.67;;;;;;;-145.69;60.36;52268.13;5133706;27;20197;-80
2024/02/04 03:25:20;;;;;;;2.73;1.83;;;;;;;-145.69;60.43;52297.84;5133308;27;20331;-80
2024/02/04 03:27:46;;;;;;;2.27;1.70;;;;;;;-145.69;60.69;52266.16;5133757;27;20559;-80
2024/02/04 03:30:13;;;;;;;2.23;1.77;;;;;;;-145.69;60.21;52282.00;5133418;27;20241;-81
2024/02/04 03:32:40;;;;;;;2.30;1.30;;;;;;;-145.69;60.51;52293.88;5133186;27;20199;-81
2024/02/04 03:35:08;;;;;;;1.97;1.53;;;;;;;-145.69;60.44;52246.34;5133201;27;20258;-80
2024/02/04 03:37:35;;;;;;;2.53;1.60;;;;;;;-145.69;60.42;52289.91;5133560;27;20635;-81
2024/02/04 03:40:01;;;;;;;1.73;1.50;;;;;;;-145.69;61.01;52289.91;5133317;27;20536;-81
2024/02/04 03:42:28;;;;;;;3.57;1.40;;;;;;;-145.69;60.74;52283.97;5133643;27;20601;-81
2024/02/04 03:44:54;;;;;;;1.73;1.50;;;;;;;-145.69;60.49;52282.00;5133245;27;20192;-81
2024/02/04 03:47:21;;;;;;;2.10;1.43;;;;;;;-145.69;60.71;52272.09;5133157;28;20204;-81
2024/02/04 03:49:47;;;;;;;1.60;1.20;;;;;;;-145.69;60.74;52282.00;5132990;27;20196;-81
2024/02/04 03:52:15;;;;;;;1.40;1.30;;;;;;;-145.69;60.60;52270.13;5133304;28;20204;-81
2024/02/04 03:54:41;;;;;;;1.70;1.20;;;;;;;-145.69;60.49;52254.28;5132902;27;20220;-81
2024/02/04 03:57:08;;;;;;;1.70;1.10;;;;;;;-145.69;60.53;52258.22;5133353;27;20196;-80
2024/02/04 03:59:34;;;;;;;1.60;1.30;;;;;;;-145.69;60.11;52303.78;5133389;27;20659;-80
2024/02/04 04:02:02;;;;;;;1.70;1.27;;;;;;;-145.69;60.60;52293.88;5132696;27;20796;-80
2024/02/04 04:04:29;;;;;;;1.37;1.27;;;;;;;-145.69;60.19;52268.13;5133285;27;20207;-80
2024/02/04 04:06:55;;;;;;;3.90;1.10;;;;;;;-145.69;59.81;52305.75;5136963;27;20197;-81
2024/02/04 04:09:23;;;;;;;5.80;1.43;;;;;;;-145.69;59.44;52276.06;5136974;27;20208;-81
2024/02/04 04:11:49;;;;;;;1.50;1.20;;;;;;;-145.69;60.16;52260.22;5137154;27;20212;-80
2024/02/04 04:14:16;;;;;;;3.93;1.50;;;;;;;-145.69;59.89;52274.06;5136889;27;20216;-81
2024/02/04 04:16:42;;;;;;;1.30;1.20;;;;;;;-145.69;59.99;52270.13;5128181;27;20640;-81
2024/02/04 04:19:09;;;;;;;1.33;1.23;;;;;;;-145.69;60.05;52270.13;5116432;28;20205;-80
2024/02/04 04:21:37;;;;;;;1.40;1.27;;;;;;;-145.69;59.79;52266.16;5116433;28;20259;-80
2024/02/04 04:24:04;;;;;;;2.07;1.20;;;;;;;-145.69;59.56;52319.63;5116527;28;20201;-80
2024/02/04 04:26:31;;;;;;;1.67;1.43;;;;;;;-145.69;59.80;52266.16;5116354;28;20228;-81
2024/02/04 04:28:58;;;;;;;1.30;1.20;;;;;;;-145.69;59.77;52282.00;5116439;28;20223;-81
2024/02/04 04:31:24;;;;;;;1.40;1.20;;;;;;;-145.69;59.83;52319.63;5127232;27;20611;-80
2024/02/04 04:33:52;;;;;;;3.03;1.40;;;;;;;-145.69;59.90;52307.75;5136454;27;20631;-81
2024/02/04 04:36:18;;;;;;;1.20;1.10;;;;;;;-145.69;59.50;52297.84;5136611;27;20193;-80
2024/02/04 04:38:45;;;;;;;2.17;1.50;;;;;;;-145.69;60.06;52268.13;5136761;27;20200;-80
2024/02/04 04:41:11;;;;;;;1.57;1.30;;;;;;;-145.69;60.39;52315.66;5136782;27;20193;-80
2024/02/04 04:43:39;;;;;;;1.83;1.40;;;;;;;-145.69;60.41;52293.88;5136631;27;20196;-80
2024/02/04 04:46:05;;;;;;;2.90;1.70;;;;;;;-145.69;60.48;52321.59;5136538;27;20201;-80
2024/02/04 04:48:32;;;;;;;1.60;1.50;;;;;;;-145.69;60.61;52327.53;5136247;27;20205;-79
2024/02/04 04:50:58;;;;;;;1.73;1.40;;;;;;;-145.69;60.61;52301.81;5136145;27;20227;-80
2024/02/04 04:53:25;;;;;;;1.73;1.60;;;;;;;-145.69;60.41;52285.97;5136271;27;20242;-81
2024/02/04 04:55:51;;;;;;;4.00;1.60;;;;;;;-145.69;60.21;52282.00;5136387;27;20204;-79
2024/02/04 04:58:18;;;;;;;2.30;1.40;;;;;;;-145.69;60.51;52282.00;5136417;27;20200;-80
2024/02/04 05:00:46;;;;;;;1.40;1.30;;;;;;;-145.69;60.61;52285.97;5135855;27;20559;-80
2024/02/04 05:03:12;;;;;;;2.13;1.30;;;;;;;-145.69;60.56;52301.81;5135921;27;20266;-79
2024/02/04 05:05:39;;;;;;;1.10;0.90;;;;;;;-145.69;60.09;52329.53;5136297;27;20563;-80
2024/02/04 05:08:05;;;;;;;1.27;1.17;;;;;;;-145.69;60.24;52278.03;5135734;27;20244;-81
2024/02/04 05:10:32;;;;;;;1.30;1.00;;;;;;;-145.69;60.16;52278.03;5136227;27;20222;-81
2024/02/04 05:12:58;;;;;;;1.10;1.00;;;;;;;-145.69;59.85;52266.16;5135391;27;20648;-79
2024/02/04 05:15:25;;;;;;;2.40;1.00;;;;;;;-145.69;60.61;52250.31;5135174;27;20365;-80
2024/02/04 05:17:54;;;;;;;1.47;1.37;;;;;;;-145.69;60.51;52282.00;5134416;27;20651;-80
2024/02/04 05:20:20;;;;;;;1.17;0.97;;;;;;;-145.69;60.44;52272.09;5136034;27;20280;-80
2024/02/04 05:22:47;;;;;;;1.40;0.90;;;;;;;-145.69;61.06;52280.00;5135788;27;20783;-80
2024/02/04 05:25:14;;;;;;;1.13;1.00;;;;;;;-145.69;60.89;52282.00;5134967;27;20670;-78
2024/02/04 05:27:40;;;;;;;2.77;1.03;;;;;;;-145.69;61.33;52333.47;5135836;27;20613;-80
2024/02/04 05:30:08;;;;;;;1.10;1.00;;;;;;;-145.69;61.21;52323.59;5135797;27;20201;-80
2024/02/04 05:32:35;;;;;;;1.73;0.93;;;;;;;-145.69;60.71;52266.16;5135496;27;20197;-80
2024/02/04 05:35:02;;;;;;;1.60;0.90;;;;;;;-145.69;61.21;52270.13;5135562;27;20228;-80
2024/02/04 05:37:29;;;;;;;1.40;1.30;;;;;;;-145.69;60.83;52299.81;5135731;27;20196;-80
2024/02/04 05:39:55;;;;;;;1.23;0.90;;;;;;;-145.69;61.24;52301.81;5135687;27;20205;-80
2024/02/04 05:42:22;;;;;;;1.10;1.00;;;;;;;-145.69;61.09;52299.81;5134830;27;20204;-80
2024/02/04 05:44:48;;;;;;;4.13;1.00;;;;;;;-145.69;60.86;52268.13;5114549;28;20197;-80
2024/02/04 05:47:15;;;;;;;1.23;1.00;;;;;;;-145.69;59.96;52299.81;5114904;28;20549;-79
2024/02/04 05:49:41;;;;;;;0.90;0.90;;;;;;;-145.69;60.17;52293.88;5118795;27;20193;-80
2024/02/04 05:52:09;;;;;;;1.23;0.90;;;;;;;-145.69;59.69;52295.84;5135457;27;20211;-80
2024/02/04 05:54:39;;;;;;;2.67;1.60;;;;;;;-145.69;59.45;52297.84;5135086;27;20683;-80
2024/02/04 05:57:06;;;;;;;0.80;0.80;;;;;;;-145.69;59.36;52270.13;5135265;27;20702;-80
2024/02/04 05:59:33;;;;;;;1.57;1.00;;;;;;;-145.69;59.52;52321.59;5135079;27;20208;-81
2024/02/04 06:01:59;;;;;;;2.23;1.30;;;;;;;-145.69;59.19;52278.03;5135089;27;20223;-80
2024/02/04 06:04:25;;;;;;;4.13;2.07;;;;;;;-145.69;59.38;52321.59;5135074;27;20197;-80
2024/02/04 06:06:52;;;;;;;1.20;1.10;;;;;;;-145.69;58.77;52278.03;5135131;27;20201;-80
2024/02/04 06:09:20;;;;;;;1.60;1.00;;;;;;;-145.69;58.83;52282.00;5127307;27;20645;-81
2024/02/04 06:11:47;;;;;;;1.90;1.10;;;;;;;-145.69;58.86;52266.16;5114262;28;20209;-79
2024/02/04 06:14:13;;;;;;;4.13;1.20;;;;;;;-145.69;58.31;52293.88;5129603;27;20227;-81
2024/02/04 06:16:40;;;;;;;1.63;1.30;;;;;;;-145.69;58.62;52293.88;5134974;27;20197;-81
2024/02/04 06:19:08;;;;;;;1.30;1.20;;;;;;;-145.69;58.25;52278.03;5134883;27;20201;-81
2024/02/04 06:21:35;;;;;;;3.27;1.60;;;;;;;-145.69;58.13;52303.78;5134637;27;20223;-79
2024/02/04 06:24:01;;;;;;;1.67;1.10;;;;;;;-145.69;58.40;52272.09;5134617;27;20223;-81
2024/02/04 06:26:29;;;;;;;1.90;1.10;;;;;;;-145.69;58.22;52274.06;5134562;27;20589;-80
2024/02/04 06:28:56;;;;;;;3.23;1.40;;;;;;;-145.69;58.38;52268.13;5134291;27;20253;-80
2024/02/04 06:31:22;;;;;;;2.40;1.17;;;;;;;-145.69;58.29;52323.59;5134625;27;20200;-80
2024/02/04 06:33:48;;;;;;;2.90;1.40;;;;;;;-145.69;58.78;52242.38;5134469;27;20188;-80
2024/02/04 06:36:15;;;;;;;3.13;1.23;;;;;;;-145.69;58.78;52270.13;5134354;27;20209;-80
2024/02/04 06:38:41;;;;;;;3.27;1.57;;;;;;;-145.69;58.69;52283.97;5134124;27;20207;-80
2024/02/04 06:41:08;;;;;;;1.40;1.30;;;;;;;-145.69;58.71;52270.13;5134393;27;20556;-79
2024/02/04 06:43:37;;;;;;;3.80;1.47;;;;;;;-145.69;58.45;52305.75;5133960;27;20532;-80
2024/02/04 06:46:04;;;;;;;1.77;1.40;;;;;;;-145.69;58.48;52282.00;5134392;27;20204;-80
2024/02/04 06:48:31;;;;;;;6.10;1.30;;;;;;;-145.69;58.65;52285.97;5134195;27;20197;-80
2024/02/04 06:50:57;;;;;;;1.27;1.17;;;;;;;-145.69;58.86;52303.78;5134234;27;20249;-79
2024/02/04 06:53:23;;;;;;;3.37;1.17;;;;;;;-145.69;58.31;52252.28;5134105;27;20200;-79
2024/02/04 06:55:50;;;;;;;1.10;1.00;;;;;;;-145.69;58.85;52266.16;5133870;27;20228;-79
2024/02/04 06:58:16;;;;;;;1.00;0.93;;;;;;;-145.69;58.36;52270.13;5133817;27;20205;-79
2024/02/04 07:00:44;;;;;;;1.23;0.97;;;;;;;-145.69;58.94;52303.78;5134124;27;20294;-80
2024/02/04 07:03:11;;;;;;;5.33;1.60;;;;;;;-145.69;58.63;52278.03;5133773;27;20655;-80
2024/02/04 07:05:38;;;;;;;1.40;1.13;;;;;;;-145.69;58.93;52266.16;5133935;27;20575;-80
2024/02/04 07:08:05;;;;;;;1.37;0.80;;;;;;;-145.69;58.73;52297.84;5132848;27;20203;-80
2024/02/04 07:10:31;;;;;;;1.00;0.80;;;;;;;-145.69;59.35;52266.16;5132850;27;20273;-82
2024/02/04 07:12:58;;;;;;;0.90;0.90;;;;;;;-145.69;58.78;52266.16;5132336;27;20196;-82
2024/02/04 07:15:24;;;;;;;2.47;1.30;;;;;;;-145.69;59.28;52278.03;5132416;27;20232;-82
2024/02/04 07:17:52;;;;;;;4.80;1.00;;;;;;;-145.69;58.87;52293.88;5132900;27;20651;-80
2024/02/04 07:20:19;;;;;;;0.90;0.90;;;;;;;-145.69;58.50;52248.34;5133842;27;20200;-81
2024/02/04 07:22:46;;;;;;;1.50;1.00;;;;;;;-145.69;58.61;52276.06;5133840;27;20251;-81
2024/02/04 07:25:12;;;;;;;1.27;1.10;;;;;;;-145.69;58.31;52270.13;5133567;27;20632;-81
2024/02/04 07:27:39;;;;;;;0.80;0.80;;;;;;;-145.69;58.60;52256.25;5131558;27;20208;-81
2024/02/04 07:30:07;;;;;;;1.13;1.03;;;;;;;-145.69;58.26;52260.22;5131569;27;20197;-81
2024/02/04 07:32:34;;;;;;;1.47;1.10;;;;;;;-145.69;58.71;52262.19;5131642;27;20193;-80
2024/02/04 07:35:02;;;;;;;1.07;0.97;;;;;;;-145.69;58.82;52252.28;5131516;27;20224;-80
2024/02/04 07:37:28;;;;;;;1.30;1.00;;;;;;;-145.69;58.51;52317.66;5131676;27;20196;-80
2024/02/04 07:39:55;;;;;;;2.83;1.67;;;;;;;-145.69;57.80;52278.03;5132461;27;20492;-80
2024/02/04 07:42:22;;;;;;;1.80;1.00;;;;;;;-145.69;57.60;52266.16;5137167;27;20189;-81
2024/02/04 07:44:48;;;;;;;0.87;0.87;;;;;;;-145.69;58.11;52291.91;5137667;27;20228;-80
2024/02/04 07:47:16;;;;;;;25.17;6.27;;;;;;;-145.69;58.38;52268.13;5137450;27;20231;-80
2024/02/04 07:49:42;;;;;;;3.63;1.20;;;;;;;-145.69;57.97;52276.06;5137563;27;20236;-80
2024/02/04 07:52:10;;;;;;;1.17;1.07;;;;;;;-145.69;57.91;52289.91;5137563;27;20207;-82
2024/02/04 07:54:36;;;;;;;0.93;0.90;;;;;;;-145.69;57.70;52242.38;5137157;27;20224;-81
2024/02/04 07:57:03;;;;;;;0.93;0.83;;;;;;;-145.69;57.86;52289.91;5137524;27;20242;-81
2024/02/04 07:59:30;;;;;;;0.83;0.83;;;;;;;-145.69;57.66;52299.81;5137747;27;20204;-81
2024/02/04 08:01:56;;;;;;;0.90;0.90;;;;;;;-145.69;57.60;52270.13;5137535;27;20197;-81
2024/02/04 08:04:22;;;;;;;0.77;0.73;;;;;;;-145.69;57.78;52252.28;5117155;27;20232;-81
2024/02/04 08:06:49;;;;;;;2.40;1.00;;;;;;;-145.69;57.26;52285.97;5116639;27;20203;-81
2024/02/04 08:09:17;;;;;;;1.33;0.80;;;;;;;-145.69;57.47;52266.16;5135288;27;20662;-80
2024/02/04 08:11:44;;;;;;;1.67;1.00;;;;;;;-145.69;57.30;52252.28;5137102;27;20201;-81
2024/02/04 08:14:10;;;;;;;2.27;1.10;;;;;;;-145.69;56.97;52264.16;5136793;27;20209;-80
2024/02/04 08:16:37;;;;;;;2.73;1.00;;;;;;;-145.69;57.11;52242.38;5136926;27;20224;-80
2024/02/04 08:19:06;;;;;;;1.10;0.93;;;;;;;-145.69;56.54;52250.31;5136941;27;20193;-80
2024/02/04 08:21:32;;;;;;;1.80;0.77;;;;;;;-145.69;55.52;52258.22;5136948;27;20211;-80
2024/02/04 08:23:59;;;;;;;2.23;1.60;;;;;;;-145.69;55.14;52258.22;5136933;27;20204;-80
2024/02/04 08:26:27;;;;;;;2.53;1.00;;;;;;;-145.69;55.62;52252.28;5136724;27;20208;-79
2024/02/04 08:28:53;;;;;;;1.40;1.10;;;;;;;-145.69;55.11;52258.22;5137002;27;20200;-80
2024/02/04 08:31:21;;;;;;;1.60;1.00;;;;;;;-145.69;54.51;52285.97;5136635;27;20199;-80
2024/02/04 08:33:47;;;;;;;0.80;0.80;;;;;;;-145.69;53.88;52254.28;5136599;27;20197;-80
2024/02/04 08:36:14;;;;;;;0.83;0.83;;;;;;;-145.69;54.60;52226.53;5136669;27;20227;-80
2024/02/04 08:38:40;;;;;;;0.93;0.77;;;;;;;-145.69;54.53;52252.28;5136917;27;20291;-80
2024/02/04 08:41:07;;;;;;;1.40;0.90;;;;;;;-145.69;54.04;52262.19;5136585;27;20201;-81
2024/02/04 08:43:35;;;;;;;1.37;0.70;;;;;;;-145.69;54.41;52266.16;5135913;27;20195;-81
2024/02/04 08:46:02;;;;;;;2.40;0.70;;;;;;;-145.69;53.83;52258.22;5136463;27;20223;-81
2024/02/04 08:48:28;;;;;;;0.80;0.73;;;;;;;-145.69;54.11;52254.28;5136521;27;20279;-80
2024/02/04 08:50:55;;;;;;;1.60;1.17;;;;;;;-145.69;53.96;52242.38;5136030;27;20236;-80
2024/02/04 08:53:23;;;;;;;1.00;0.70;;;;;;;-145.69;53.75;52234.47;5136719;27;20209;-80
2024/02/04 08:55:49;;;;;;;2.57;0.70;;;;;;;-145.69;53.49;52256.25;5136261;27;20228;-79
2024/02/04 08:58:16;;;;;;;2.93;1.07;;;;;;;-145.69;53.17;52289.91;5136501;27;20288;-79
2024/02/04 09:00:43;;;;;;;1.33;0.90;;;;;;;-145.69;53.84;52214.66;5136191;27;20787;-79
2024/02/04 09:03:10;;;;;;;0.80;0.80;;;;;;;-145.69;53.28;52282.00;5136262;27;20200;-80
2024/02/04 09:05:36;;;;;;;0.73;0.70;;;;;;;-145.69;53.78;52254.28;5136600;27;20212;-80
2024/02/04 09:08:03;;;;;;;0.60;0.60;;;;;;;-145.69;53.04;52242.38;5136428;27;20223;-80
2024/02/04 09:10:30;;;;;;;0.73;0.73;;;;;;;-145.69;53.03;52258.22;5136246;27;20193;-80
2024/02/04 09:12:56;;;;;;;0.70;0.70;;;;;;;-145.69;53.67;52236.44;5135398;27;20197;-80
2024/02/04 09:15:23;;;;;;;1.50;0.80;;;;;;;-145.69;53.37;52254.28;5135911;27;20228;-80
2024/02/04 09:17:51;;;;;;;0.87;0.87;;;;;;;-145.69;52.46;52230.50;5136124;27;20197;-80
2024/02/04 09:20:17;;;;;;;1.37;1.00;;;;;;;-145.69;52.55;52238.44;5135558;27;20208;-80
2024/02/04 09:22:44;;;;;;;1.40;1.00;;;;;;;-145.69;52.04;52234.47;5135848;27;20724;-79
2024/02/04 09:25:10;;;;;;;0.90;0.83;;;;;;;-145.69;51.99;52266.16;5135827;27;20201;-80
2024/02/04 09:27:37;;;;;;;1.13;0.97;;;;;;;-145.69;51.71;52248.34;5135904;27;20203;-79
2024/02/04 09:30:05;;;;;;;2.10;0.90;;;;;;;-145.69;51.49;52218.63;5135626;27;20716;-80
2024/02/04 09:32:32;;;;;;;0.60;0.60;;;;;;;-145.69;51.95;52260.22;5135753;27;20362;-80
2024/02/04 09:34:59;;;;;;;1.03;0.80;;;;;;;-145.69;51.14;52230.50;5135437;27;20231;-80
2024/02/04 09:37:26;;;;;;;0.80;0.80;;;;;;;-145.69;50.97;52238.44;5135622;27;20204;-80
2024/02/04 09:39:52;;;;;;;2.53;0.80;;;;;;;-145.69;49.60;52250.31;5135146;27;20670;-81
2024/02/04 09:42:21;;;;;;;7.00;3.00;;;;;;;-145.69;50.21;52246.34;5135244;27;20203;-82
2024/02/04 09:44:49;;;;;;;3.47;1.07;;;;;;;-145.69;49.23;52240.41;5134758;27;20200;-80
2024/02/04 09:47:16;;;;;;;0.83;0.83;;;;;;;-145.69;49.10;52260.22;5135259;27;20197;-80
2024/02/04 09:49:42;;;;;;;0.80;0.80;;;;;;;-145.69;49.09;52232.50;5134909;27;20188;-80
2024/02/04 09:52:13;;;;;;;2.87;1.20;;;;;;;-145.69;48.47;52246.34;5135245;27;20666;-81
2024/02/04 09:54:44;;;;;;;1.30;0.80;;;;;;;-145.69;48.52;52218.63;5135792;27;20245;-81
2024/02/04 09:57:11;;;;;;;2.73;0.80;;;;;;;-145.69;48.77;52232.50;5135239;27;20196;-81
2024/02/04 09:59:38;;;;;;;5.47;2.40;;;;;;;-145.69;48.75;52218.63;5134722;27;20197;-81
2024/02/04 10:02:05;;;;;;;1.07;0.90;;;;;;;-145.69;48.13;52214.66;5134950;27;20203;-81
2024/02/04 10:04:31;;;;;;;1.10;0.80;;;;;;;-145.69;47.91;52226.53;5131572;27;20611;-81
2024/02/04 10:06:58;;;;;;;1.57;0.60;;;;;;;-145.69;47.73;52204.75;5125867;27;20212;-80
2024/02/04 10:09:26;;;;;;;0.73;0.73;;;;;;;-145.69;47.77;52226.53;5134846;27;20197;-80
2024/02/04 10:11:53;;;;;;;4.75;2.38;;;;;;;-145.69;48.08;52238.44;5134816;27;20197;-80
2024/02/04 10:14:20;;;;;;;1.13;0.90;;;;;;;-145.69;48.09;52222.59;5134696;27;20651;-80
2024/02/04 10:16:46;;;;;;;0.63;0.60;;;;;;;-145.69;47.65;52212.69;5134498;27;20315;-80
2024/02/04 10:19:13;;;;;;;0.63;0.63;;;;;;;-145.69;46.72;52214.66;5134689;27;20231;-80
2024/02/04 10:21:39;;;;;;;0.85;0.80;;;;;;;-145.69;46.40;52165.16;5134751;27;20201;-81
2024/02/04 10:24:08;;;;;;;0.70;0.63;;;;;;;-145.69;46.19;52177.03;5134264;27;20679;-80
2024/02/04 10:26:37;;;;;;;1.48;0.73;;;;;;;-145.69;46.69;52224.56;5134537;27;20266;-82
2024/02/04 10:29:04;;;;;;;2.90;0.80;;;;;;;-145.69;46.99;52210.72;5134279;27;20200;-81
2024/02/04 10:31:30;;;;;;;3.03;0.73;;;;;;;-145.69;46.45;52214.66;5134693;27;20204;-80
2024/02/04 10:33:57;;;;;;;1.25;1.00;;;;;;;-145.69;46.71;52210.72;5133899;27;20200;-80
2024/02/04 10:36:23;;;;;;;1.25;0.85;;;;;;;-145.69;47.43;52194.88;5134333;27;20240;-80
2024/02/04 10:38:50;;;;;;;1.30;0.82;;;;;;;-145.69;47.93;52208.72;5134483;27;20235;-80
2024/02/04 10:41:18;;;;;;;2.10;0.80;;;;;;;-145.69;47.38;52202.78;5134251;27;20227;-80
2024/02/04 10:43:47;;;;;;;3.03;1.10;;;;;;;-145.69;47.47;52186.94;5118046;27;20643;-80
2024/02/04 10:46:17;;;;;;;0.77;0.77;;;;;;;-145.69;47.23;52194.88;5134403;27;20209;-80
2024/02/04 10:48:44;;;;;;;3.33;1.00;;;;;;;-145.69;46.66;52224.56;5134435;27;20192;-80
2024/02/04 10:51:14;;;;;;;2.87;1.00;;;;;;;-145.69;46.89;52214.66;5133808;27;20228;-79
2024/02/04 10:53:42;;;;;;;0.77;0.75;;;;;;;-145.69;46.91;52252.28;5134134;27;20205;-80
2024/02/04 10:56:14;;;;;;;1.13;0.80;;;;;;;-145.69;46.21;52204.75;5134000;27;20560;-79
2024/02/04 10:58:41;;;;;;;1.07;0.87;;;;;;;-145.69;46.89;52218.63;5133709;27;20197;-79
2024/02/04 11:01:10;;;;;;;1.17;0.80;;;;;;;-145.69;47.09;52218.63;5131364;27;20200;-77
2024/02/04 11:03:37;;;;;;;0.80;0.70;;;;;;;-145.69;47.14;52214.66;5133219;27;20197;-79
2024/02/04 11:06:07;;;;;;;0.80;0.70;;;;;;;-145.69;47.07;52200.81;5133668;27;20199;-78
2024/02/04 11:08:33;;;;;;;2.00;0.70;;;;;;;-145.69;47.42;52210.72;5126782;27;20208;-79
2024/02/04 11:11:02;;;;;;;2.97;0.93;;;;;;;-145.69;47.40;52202.78;5120115;27;20211;-80
2024/02/04 11:13:30;;;;;;;1.52;1.05;;;;;;;-145.69;48.24;52177.03;5114514;28;20568;-79
2024/02/04 11:15:58;;;;;;;0.80;0.70;;;;;;;-145.69;47.42;52190.91;5133284;27;20582;-79